createdAt,value
2023-02-06T00:02:44.090Z,103467.81
2023-02-06T00:07:45.806Z,103483.59
2023-02-06T00:12:47.395Z,103477.63
2023-02-06T00:17:49.212Z,103482.03
2023-02-06T00:22:50.843Z,103482.44
2023-02-06T00:27:52.442Z,103477.34
2023-02-06T00:32:54.010Z,103480.94
2023-02-06T00:37:56.603Z,103468.66
2023-02-06T00:42:58.212Z,103470.78
2023-02-06T00:48:00.180Z,103470.06
2023-02-06T00:53:01.985Z,103477.44
2023-02-06T00:58:03.829Z,103473.25
2023-02-06T01:03:05.397Z,103479.19
2023-02-06T01:08:07.122Z,103473.66
2023-02-06T01:13:09.218Z,103470.50
2023-02-06T01:18:10.860Z,103476.91
2023-02-06T01:23:15.245Z,103484.88
2023-02-06T01:28:19.068Z,103480.34
2023-02-06T01:33:21.610Z,103470.63
2023-02-06T01:38:23.106Z,103472.19
2023-02-06T01:43:27.616Z,103463.66
2023-02-06T01:48:35.424Z,103474.25
2023-02-06T01:53:38.620Z,103469.53
2023-02-06T01:58:44.429Z,103480.97
2023-02-06T02:03:49.854Z,103486.34
2023-02-06T02:08:54.463Z,103480.25
2023-02-06T02:13:57.270Z,103473.06
2023-02-06T02:19:35.742Z,103463.38
2023-02-06T02:24:55.999Z,103467.03
2023-02-06T02:30:15.973Z,103460.75
2023-02-06T02:35:34.003Z,103465.69
2023-02-06T02:40:47.046Z,103451.22
2023-02-06T02:46:00.153Z,103452.38
2023-02-06T02:51:01.942Z,103449.84
2023-02-06T02:56:19.223Z,103459.56
2023-02-06T03:01:27.801Z,103463.34
2023-02-06T03:06:55.526Z,103461.56
2023-02-06T03:12:25.324Z,103471.31
2023-02-06T03:17:34.013Z,103470.09
2023-02-06T03:22:37.115Z,103468.91
2023-02-06T03:27:43.179Z,103478.53
2023-02-06T03:32:49.273Z,103482.75
2023-02-06T03:37:50.869Z,103492.50
2023-02-06T03:42:56.525Z,103487.50
2023-02-06T03:48:06.246Z,103489.25
2023-02-06T03:53:10.292Z,103485.06
2023-02-06T03:58:13.933Z,103477.13
2023-02-06T04:03:16.716Z,103486.69
2023-02-06T04:08:18.458Z,103489.50
2023-02-06T04:13:20.174Z,103480.94
2023-02-06T04:18:22.054Z,103489.66
2023-02-06T04:23:23.593Z,103480.13
2023-02-06T04:28:25.186Z,103477.84
2023-02-06T04:33:26.894Z,103477.25
2023-02-06T04:38:28.454Z,103485.31
2023-02-06T04:43:31.347Z,103482.94
2023-02-06T04:48:32.941Z,103471.97
2023-02-06T04:53:34.718Z,103481.38
2023-02-06T04:58:39.267Z,103494.88
2023-02-06T05:03:40.830Z,103501.16
2023-02-06T05:08:42.847Z,103502.63
2023-02-06T05:13:44.540Z,103520.81
2023-02-06T05:18:46.146Z,103520.03
2023-02-06T05:23:47.670Z,103512.16
2023-02-06T05:28:49.254Z,103492.50
2023-02-06T05:33:52.528Z,103485.31
2023-02-06T05:38:54.314Z,103490.63
2023-02-06T05:43:55.940Z,103483.88
2023-02-06T05:48:57.572Z,103484.16
2023-02-06T05:53:59.231Z,103492.69
2023-02-06T05:59:00.798Z,103500.66
2023-02-06T06:04:03.416Z,103496.13
2023-02-06T06:09:05.124Z,103493.09
2023-02-06T06:14:06.945Z,103478.28
2023-02-06T06:19:08.648Z,103477.03
2023-02-06T06:24:10.275Z,103494.75
2023-02-06T06:29:11.918Z,103482.75
2023-02-06T06:34:13.699Z,103479.03
2023-02-06T06:39:15.372Z,103483.25
2023-02-06T06:44:16.973Z,103481.25
2023-02-06T06:49:18.937Z,103489.78
2023-02-06T06:54:20.461Z,103492.19
2023-02-06T06:59:22.020Z,103494.78
2023-02-06T07:04:23.533Z,103502.19
2023-02-06T07:09:25.442Z,103490.03
2023-02-06T07:14:27.161Z,103489.53
2023-02-06T07:19:28.766Z,103492.22
2023-02-06T07:24:30.456Z,103484.50
2023-02-06T07:29:32.244Z,103487.63
2023-02-06T07:34:33.919Z,103498.47
2023-02-06T07:39:35.582Z,103498.66
2023-02-06T07:44:37.146Z,103497.41
2023-02-06T07:49:38.732Z,103496.09
2023-02-06T07:54:40.241Z,103493.22
2023-02-06T07:59:41.992Z,103494.94
2023-02-06T08:04:44.055Z,103496.69
2023-02-06T08:09:45.737Z,103492.16
2023-02-06T08:14:47.277Z,103500.16
2023-02-06T08:19:49.316Z,103497.63
2023-02-06T08:24:51.157Z,103495.06
2023-02-06T08:29:53.454Z,103497.13
2023-02-06T08:34:55.007Z,103499.81
2023-02-06T08:39:56.617Z,103507.88
2023-02-06T08:44:58.230Z,103513.44
2023-02-06T08:50:02.910Z,103498.25
2023-02-06T08:55:05.147Z,103505.00
2023-02-06T09:00:07.554Z,103498.81
2023-02-06T09:05:09.118Z,103508.25
2023-02-06T09:10:22.123Z,103511.09
2023-02-06T09:15:28.465Z,103518.31
2023-02-06T09:20:30.030Z,103514.41
2023-02-06T09:25:31.599Z,103515.22
2023-02-06T09:30:33.196Z,103513.31
2023-02-06T09:35:35.328Z,103517.22
2023-02-06T09:40:37.673Z,103511.16
2023-02-06T09:45:39.775Z,103506.63
2023-02-06T09:51:00.302Z,103496.88
2023-02-06T09:56:09.900Z,103493.03
2023-02-06T10:01:43.566Z,103489.06
2023-02-06T10:06:59.843Z,103497.13
2023-02-06T10:12:12.908Z,103499.47
2023-02-06T10:17:29.115Z,103495.84
2023-02-06T10:22:49.585Z,103495.88
2023-02-06T10:27:57.322Z,103499.56
2023-02-06T10:33:34.317Z,103498.34
2023-02-06T10:38:49.573Z,103481.06
2023-02-06T10:44:01.929Z,103476.31
2023-02-06T10:49:20.462Z,103490.81
2023-02-06T10:54:43.008Z,103466.34
2023-02-06T10:59:49.420Z,103459.72
2023-02-06T11:04:53.609Z,103450.47
2023-02-06T11:09:55.381Z,103444.44
2023-02-06T11:15:01.656Z,103430.63
2023-02-06T11:20:20.201Z,103424.34
2023-02-06T11:25:29.093Z,103429.16
2023-02-06T11:30:35.404Z,103422.28
2023-02-06T11:35:47.400Z,103410.38
2023-02-06T11:40:54.678Z,103390.75
2023-02-06T11:46:11.396Z,103394.50
2023-02-06T11:51:14.429Z,103381.34
2023-02-06T11:56:19.431Z,103382.84
2023-02-06T12:01:22.335Z,103379.25
2023-02-06T12:06:38.439Z,103388.22
2023-02-06T12:11:48.726Z,103379.94
2023-02-06T12:16:52.252Z,103386.09
2023-02-06T12:21:59.889Z,103387.44
2023-02-06T12:27:18.251Z,103385.91
2023-02-06T12:32:24.887Z,103385.00
2023-02-06T12:37:55.288Z,103373.22
2023-02-06T12:43:03.110Z,103373.84
2023-02-06T12:48:27.809Z,103365.25
2023-02-06T12:53:43.140Z,103352.97
2023-02-06T12:58:51.369Z,103352.41
2023-02-06T13:03:58.260Z,103348.38
2023-02-06T13:09:04.435Z,103356.03
2023-02-06T13:14:25.761Z,103338.50
2023-02-06T13:19:50.988Z,103345.41
2023-02-06T13:24:52.684Z,103332.47
2023-02-06T13:29:54.413Z,103339.66
2023-02-06T13:35:13.840Z,103334.19
2023-02-06T13:40:24.495Z,103320.84
2023-02-06T13:45:31.191Z,103326.34
2023-02-06T13:50:44.202Z,103319.28
2023-02-06T13:56:29.102Z,103319.91
2023-02-06T14:01:31.041Z,103313.91
2023-02-06T14:06:46.170Z,103310.66
2023-02-06T14:11:56.703Z,103319.16
2023-02-06T14:17:21.556Z,103313.47
2023-02-06T14:22:32.330Z,103311.44
2023-02-06T14:27:46.339Z,103307.84
2023-02-06T14:33:12.421Z,103315.09
2023-02-06T14:38:20.214Z,103303.06
2023-02-06T14:43:29.847Z,103302.50
2023-02-06T14:48:40.355Z,103296.94
2023-02-06T14:53:54.497Z,103302.25
2023-02-06T14:59:13.619Z,103296.72
2023-02-06T15:04:18.460Z,103299.31
2023-02-06T15:09:34.534Z,103311.66
2023-02-06T15:15:21.808Z,103305.94
2023-02-06T15:20:29.817Z,103297.94
2023-02-06T15:26:10.816Z,103296.59
2023-02-06T15:31:21.170Z,103301.91
2023-02-06T15:36:24.288Z,103303.59
2023-02-06T15:41:28.063Z,103299.31
2023-02-06T15:46:30.976Z,103290.00
2023-02-06T15:51:53.799Z,103283.59
2023-02-06T15:57:30.327Z,103279.00
2023-02-06T16:02:35.017Z,103275.44
2023-02-06T16:07:36.801Z,103269.44
2023-02-06T16:12:41.503Z,103273.19
2023-02-06T16:17:43.094Z,103266.50
2023-02-06T16:22:44.721Z,103265.16
2023-02-06T16:27:46.649Z,103278.41
2023-02-06T16:32:48.748Z,103261.53
2023-02-06T16:37:52.114Z,103261.44
2023-02-06T16:42:54.158Z,103270.44
2023-02-06T16:47:56.354Z,103270.72
2023-02-06T16:53:00.531Z,103264.81
2023-02-06T16:58:02.361Z,103267.81
2023-02-06T17:03:04.137Z,103262.16
2023-02-06T17:08:24.145Z,103259.53
2023-02-06T17:13:25.748Z,103268.59
2023-02-06T17:18:27.472Z,103259.94
2023-02-06T17:23:29.282Z,103264.00
2023-02-06T17:28:31.378Z,103264.56
2023-02-06T17:33:33.920Z,103277.84
2023-02-06T17:38:35.413Z,103278.88
2023-02-06T17:43:37.135Z,103277.59
2023-02-06T17:48:39.002Z,103268.63
2023-02-06T17:53:40.794Z,103268.31
2023-02-06T17:58:43.458Z,103253.44
2023-02-06T18:03:47.630Z,103264.31
2023-02-06T18:08:50.068Z,103254.38
2023-02-06T18:13:51.647Z,103260.47
2023-02-06T18:18:54.021Z,103260.72
2023-02-06T18:23:55.724Z,103265.03
2023-02-06T18:28:57.447Z,103264.31
2023-02-06T18:33:59.245Z,103273.47
2023-02-06T18:39:00.922Z,103269.16
2023-02-06T18:44:04.619Z,103261.91
2023-02-06T18:49:06.513Z,103280.34
2023-02-06T18:54:08.033Z,103273.16
2023-02-06T18:59:09.640Z,103276.28
2023-02-06T19:04:11.280Z,103280.59
2023-02-06T19:09:13.566Z,103278.16
2023-02-06T19:14:17.120Z,103284.25
2023-02-06T19:19:19.115Z,103273.50
2023-02-06T19:24:20.642Z,103275.16
2023-02-06T19:29:34.824Z,103276.38
2023-02-06T19:34:38.343Z,103276.94
2023-02-06T19:39:40.605Z,103279.44
2023-02-06T19:44:42.833Z,103292.06
2023-02-06T19:49:44.810Z,103293.03
2023-02-06T19:54:46.615Z,103292.19
2023-02-06T19:59:49.065Z,103293.19
2023-02-06T20:04:50.594Z,103296.91
2023-02-06T20:09:52.513Z,103310.63
2023-02-06T20:14:54.041Z,103306.75
2023-02-06T20:19:58.824Z,103321.44
2023-02-06T20:25:00.313Z,103315.34
2023-02-06T20:30:02.179Z,103315.28
2023-02-06T20:35:03.915Z,103302.88
2023-02-06T20:40:08.809Z,103304.28
2023-02-06T20:45:11.343Z,103298.91
2023-02-06T20:50:13.002Z,103311.41
2023-02-06T20:55:14.601Z,103311.13
2023-02-06T21:00:16.519Z,103311.91
2023-02-06T21:05:18.182Z,103297.19
2023-02-06T21:10:19.973Z,103286.59
2023-02-06T21:15:21.578Z,103288.59
2023-02-06T21:20:23.176Z,103283.63
2023-02-06T21:25:24.846Z,103284.66
2023-02-06T21:30:26.528Z,103283.47
2023-02-06T21:35:28.063Z,103283.41
2023-02-06T21:40:29.594Z,103285.03
2023-02-06T21:45:31.238Z,103284.03
2023-02-06T21:50:33.322Z,103298.38
2023-02-06T21:55:35.486Z,103294.47
2023-02-06T22:00:37.183Z,103291.56
2023-02-06T22:05:39.509Z,103288.13
2023-02-06T22:10:41.081Z,103302.72
2023-02-06T22:15:48.523Z,103296.88
2023-02-06T22:20:50.216Z,103288.06
2023-02-06T22:25:51.733Z,103283.69
2023-02-06T22:30:53.389Z,103294.78
2023-02-06T22:35:54.979Z,103283.44
2023-02-06T22:41:00.900Z,103294.31
2023-02-06T22:46:03.051Z,103280.06
2023-02-06T22:51:10.024Z,103279.97
2023-02-06T22:56:20.534Z,103263.47
2023-02-06T23:01:24.644Z,103255.09
2023-02-06T23:06:28.009Z,103253.84
2023-02-06T23:11:30.011Z,103271.75
2023-02-06T23:16:33.145Z,103263.03
2023-02-06T23:21:38.698Z,103276.66
2023-02-06T23:26:46.761Z,103285.13
2023-02-06T23:31:49.574Z,103281.81
2023-02-06T23:36:51.473Z,103284.00
2023-02-06T23:41:53.088Z,103283.25
2023-02-06T23:46:54.748Z,103290.47
2023-02-06T23:51:56.277Z,103305.00
2023-02-06T23:56:57.775Z,103296.06
